Aviation Digital Data Service (ADDS)

Output produced by METARs form (0410 UTC 24 January 2019)
found at http://www.aviationweather.gov/metar/data/
 
METAR text: EKKA 240350Z AUTO 00000KT 7000NDV BKN015/// BKN170/// M05/M06 Q1010 R09R/190095
Conditions at: EKKA (KARUP (DAN-AFB) , DK) observed 0350 UTC 24 January 2019
Temperature: -5.0°C (23°F)
Dewpoint: -6.0°C (21°F) [RH = 93%]
Pressure (altimeter): 29.82 inches Hg (1010.0 mb)
Winds: calm
Visibility: 0.06 miles (0.10 km)
Ceiling: 1500 feet AGL
Clouds: broken clouds at 1500 feet AGL
broken clouds at 17000 feet AGL
Weather: no significant weather observed at this time

METAR text: EKKA 240320Z AUTO 14002KT 7000NDV FEW014/// BKN170/// M05/M06 Q1010 R09R/190095
Conditions at: EKKA (KARUP (DAN-AFB) , DK) observed 0320 UTC 24 January 2019
Temperature: -5.0°C (23°F)
Dewpoint: -6.0°C (21°F) [RH = 93%]
Pressure (altimeter): 29.82 inches Hg (1010.0 mb)
Winds: from the SE (140 degrees) at 2 MPH (2 knots; 1.0 m/s)
Visibility: 0.06 miles (0.10 km)
Ceiling: 17000 feet AGL
Clouds: few clouds at 1400 feet AGL
broken clouds at 17000 feet AGL
Weather: no significant weather observed at this time

METAR text: EKKA 240250Z AUTO 15004KT 8000NDV BKN160/// M05/M06 Q1010 R09R/190095
Conditions at: EKKA (KARUP (DAN-AFB) , DK) observed 0250 UTC 24 January 2019
Temperature: -5.0°C (23°F)
Dewpoint: -6.0°C (21°F) [RH = 93%]
Pressure (altimeter): 29.82 inches Hg (1010.0 mb)
Winds: from the SSE (150 degrees) at 5 MPH (4 knots; 2.1 m/s)
Visibility: 0.06 miles (0.10 km)
Ceiling: 16000 feet AGL
Clouds: broken clouds at 16000 feet AGL
Weather: no significant weather observed at this time

METAR text: EKKA 240220Z AUTO 00000KT 5000NDV SCT015/// BKN180/// M06/M07 Q1010 R09R/190095
Conditions at: EKKA (KARUP (DAN-AFB) , DK) observed 0220 UTC 24 January 2019
Temperature: -6.0°C (21°F)
Dewpoint: -7.0°C (19°F) [RH = 93%]
Pressure (altimeter): 29.82 inches Hg (1010.0 mb)
Winds: calm
Visibility: 0.06 miles (0.10 km)
Ceiling: 18000 feet AGL
Clouds: scattered clouds at 1500 feet AGL
broken clouds at 18000 feet AGL
Weather: no significant weather observed at this time

METAR text: EKKA 240150Z AUTO 00000KT 4900NDV BR SCT016/// BKN180/// M06/M07 Q1009 R09R/190095
Conditions at: EKKA (KARUP (DAN-AFB) , DK) observed 0150 UTC 24 January 2019
Temperature: -6.0°C (21°F)
Dewpoint: -7.0°C (19°F) [RH = 93%]
Pressure (altimeter): 29.79 inches Hg (1009.0 mb)
Winds: calm
Visibility: 0.06 miles (0.10 km)
Ceiling: 18000 feet AGL
Clouds: scattered clouds at 1600 feet AGL
broken clouds at 18000 feet AGL
Weather: BR  (mist)

METAR text: EKKA 240148Z AUTO 00000KT 4900NDV FEW017/// BKN180/// M06/M07 Q1009 R09R/190095
Conditions at: EKKA (KARUP (DAN-AFB) , DK) observed 0148 UTC 24 January 2019
Temperature: -6.0°C (21°F)
Dewpoint: -7.0°C (19°F) [RH = 93%]
Pressure (altimeter): 29.79 inches Hg (1009.0 mb)
Winds: calm
Visibility: 0.06 miles (0.10 km)
Ceiling: 18000 feet AGL
Clouds: few clouds at 1700 feet AGL
broken clouds at 18000 feet AGL
Weather: no significant weather observed at this time

METAR text: EKKA 240128Z AUTO 13001KT 4900NDV FEW016/// BKN180/// M06/M07 Q1009 R09R/190095
Conditions at: EKKA (KARUP (DAN-AFB) , DK) observed 0128 UTC 24 January 2019
Temperature: -6.0°C (21°F)
Dewpoint: -7.0°C (19°F) [RH = 93%]
Pressure (altimeter): 29.79 inches Hg (1009.0 mb)
Winds: from the SE (130 degrees) at 1 MPH (1 knots; 0.5 m/s)
Visibility: 0.06 miles (0.10 km)
Ceiling: 18000 feet AGL
Clouds: few clouds at 1600 feet AGL
broken clouds at 18000 feet AGL
Weather: no significant weather observed at this time

METAR text: EKKA 240120Z AUTO 12003KT 5000NDV SCT016/// BKN180/// M06/M07 Q1009 R09R/190095
Conditions at: EKKA (KARUP (DAN-AFB) , DK) observed 0120 UTC 24 January 2019
Temperature: -6.0°C (21°F)
Dewpoint: -7.0°C (19°F) [RH = 93%]
Pressure (altimeter): 29.79 inches Hg (1009.0 mb)
Winds: from the ESE (120 degrees) at 3 MPH (3 knots; 1.5 m/s)
Visibility: 0.06 miles (0.10 km)
Ceiling: 18000 feet AGL
Clouds: scattered clouds at 1600 feet AGL
broken clouds at 18000 feet AGL
Weather: no significant weather observed at this time

METAR text: EKKA 240050Z AUTO 12003KT 4700NDV BR FEW016/// BKN170/// M06/M07 Q1009 R09R/190095
Conditions at: EKKA (KARUP (DAN-AFB) , DK) observed 0050 UTC 24 January 2019
Temperature: -6.0°C (21°F)
Dewpoint: -7.0°C (19°F) [RH = 93%]
Pressure (altimeter): 29.79 inches Hg (1009.0 mb)
Winds: from the ESE (120 degrees) at 3 MPH (3 knots; 1.5 m/s)
Visibility: 0.06 miles (0.10 km)
Ceiling: 17000 feet AGL
Clouds: few clouds at 1600 feet AGL
broken clouds at 17000 feet AGL
Weather: BR  (mist)

METAR text: EKKA 240020Z AUTO 00000KT 3500NDV BR FEW016/// BKN170/// M06/M07 Q1009 R09R/190095
Conditions at: EKKA (KARUP (DAN-AFB) , DK) observed 0020 UTC 24 January 2019
Temperature: -6.0°C (21°F)
Dewpoint: -7.0°C (19°F) [RH = 93%]
Pressure (altimeter): 29.79 inches Hg (1009.0 mb)
Winds: calm
Visibility: 0.06 miles (0.10 km)
Ceiling: 17000 feet AGL
Clouds: few clouds at 1600 feet AGL
broken clouds at 17000 feet AGL
Weather: BR  (mist)

METAR text: EKKA 232350Z AUTO 11003KT 3800NDV BR BKN200/// M06/M07 Q1009 R09R/190095
Conditions at: EKKA (KARUP (DAN-AFB) , DK) observed 2350 UTC 23 January 2019
Temperature: -6.0°C (21°F)
Dewpoint: -7.0°C (19°F) [RH = 93%]
Pressure (altimeter): 29.79 inches Hg (1009.0 mb)
Winds: from the ESE (110 degrees) at 3 MPH (3 knots; 1.5 m/s)
Visibility: 0.06 miles (0.10 km)
Ceiling: 20000 feet AGL
Clouds: broken clouds at 20000 feet AGL
Weather: BR  (mist)

METAR text: EKKA 232320Z AUTO 12003KT 3600NDV BR FEW170/// BKN200/// M06/M07 Q1009 R09R/190095
Conditions at: EKKA (KARUP (DAN-AFB) , DK) observed 2320 UTC 23 January 2019
Temperature: -6.0°C (21°F)
Dewpoint: -7.0°C (19°F) [RH = 93%]
Pressure (altimeter): 29.79 inches Hg (1009.0 mb)
Winds: from the ESE (120 degrees) at 3 MPH (3 knots; 1.5 m/s)
Visibility: 0.06 miles (0.10 km)
Ceiling: 20000 feet AGL
Clouds: few clouds at 17000 feet AGL
broken clouds at 20000 feet AGL
Weather: BR  (mist)

METAR text: EKKA 232250Z AUTO 11004KT 3500NDV BR FEW170/// SCT210/// M06/M07 Q1008 R09R/190095
Conditions at: EKKA (KARUP (DAN-AFB) , DK) observed 2250 UTC 23 January 2019
Temperature: -6.0°C (21°F)
Dewpoint: -7.0°C (19°F) [RH = 93%]
Pressure (altimeter): 29.76 inches Hg (1008.0 mb)
Winds: from the ESE (110 degrees) at 5 MPH (4 knots; 2.1 m/s)
Visibility: 0.06 miles (0.10 km)
Ceiling: at least 12,000 feet AGL
Clouds: few clouds at 17000 feet AGL
scattered clouds at 21000 feet AGL
Weather: BR  (mist)

METAR text: EKKA 232220Z AUTO 11004KT 3900NDV BR BKN180/// M06/M07 Q1008 R09R/190095
Conditions at: EKKA (KARUP (DAN-AFB) , DK) observed 2220 UTC 23 January 2019
Temperature: -6.0°C (21°F)
Dewpoint: -7.0°C (19°F) [RH = 93%]
Pressure (altimeter): 29.76 inches Hg (1008.0 mb)
Winds: from the ESE (110 degrees) at 5 MPH (4 knots; 2.1 m/s)
Visibility: 0.06 miles (0.10 km)
Ceiling: 18000 feet AGL
Clouds: broken clouds at 18000 feet AGL
Weather: BR  (mist)

METAR text: EKKA 232216Z AUTO 11003KT 4800NDV BR BKN180/// M06/M07 Q1008 R09R/190095
Conditions at: EKKA (KARUP (DAN-AFB) , DK) observed 2216 UTC 23 January 2019
Temperature: -6.0°C (21°F)
Dewpoint: -7.0°C (19°F) [RH = 93%]
Pressure (altimeter): 29.76 inches Hg (1008.0 mb)
Winds: from the ESE (110 degrees) at 3 MPH (3 knots; 1.5 m/s)
Visibility: 0.06 miles (0.10 km)
Ceiling: 18000 feet AGL
Clouds: broken clouds at 18000 feet AGL
Weather: BR  (mist)

METAR text: EKKA 232215Z AUTO 11003KT 4800NDV BR BKN180/// M06/M07 Q1008 R09R/190095
Conditions at: EKKA (KARUP (DAN-AFB) , DK) observed 2215 UTC 23 January 2019
Temperature: -6.0°C (21°F)
Dewpoint: -7.0°C (19°F) [RH = 93%]
Pressure (altimeter): 29.76 inches Hg (1008.0 mb)
Winds: from the ESE (110 degrees) at 3 MPH (3 knots; 1.5 m/s)
Visibility: 0.06 miles (0.10 km)
Ceiling: 18000 feet AGL
Clouds: broken clouds at 18000 feet AGL
Weather: BR  (mist)

METAR text: EKKA 232150Z AUTO 00000KT 4300NDV BR BKN190/// M05/M06 Q1008 R09R/190095
Conditions at: EKKA (KARUP (DAN-AFB) , DK) observed 2150 UTC 23 January 2019
Temperature: -5.0°C (23°F)
Dewpoint: -6.0°C (21°F) [RH = 93%]
Pressure (altimeter): 29.76 inches Hg (1008.0 mb)
Winds: calm
Visibility: 0.06 miles (0.10 km)
Ceiling: 19000 feet AGL
Clouds: broken clouds at 19000 feet AGL
Weather: BR  (mist)

METAR text: EKKA 232120Z AUTO 12004KT 4500NDV BR SCT160/// BKN200/// M05/M06 Q1008 R09R/190095
Conditions at: EKKA (KARUP (DAN-AFB) , DK) observed 2120 UTC 23 January 2019
Temperature: -5.0°C (23°F)
Dewpoint: -6.0°C (21°F) [RH = 93%]
Pressure (altimeter): 29.76 inches Hg (1008.0 mb)
Winds: from the ESE (120 degrees) at 5 MPH (4 knots; 2.1 m/s)
Visibility: 0.06 miles (0.10 km)
Ceiling: 20000 feet AGL
Clouds: scattered clouds at 16000 feet AGL
broken clouds at 20000 feet AGL
Weather: BR  (mist)

METAR text: EKKA 232050Z AUTO 11004KT 4100NDV BR NCD M05/M06 Q1008 R09R/190095 TEMPO 2500
Conditions at: EKKA (KARUP (DAN-AFB) , DK) observed 2050 UTC 23 January 2019
Temperature: -5.0°C (23°F)
Dewpoint: -6.0°C (21°F) [RH = 93%]
Pressure (altimeter): 29.76 inches Hg (1008.0 mb)
Winds: from the ESE (110 degrees) at 5 MPH (4 knots; 2.1 m/s)
Visibility: 0.06 miles (0.10 km)
Ceiling: at least 12,000 feet AGL
Clouds: sky clear below 12,000 feet AGL
Weather: BR  (mist)

METAR text: EKKA 232044Z AUTO 10003KT 4000NDV BR NCD M05/M07 Q1008 R09R/190095 TEMPO 2500
Conditions at: EKKA (KARUP (DAN-AFB) , DK) observed 2044 UTC 23 January 2019
Temperature: -5.0°C (23°F)
Dewpoint: -7.0°C (19°F) [RH = 86%]
Pressure (altimeter): 29.76 inches Hg (1008.0 mb)
Winds: from the E (100 degrees) at 3 MPH (3 knots; 1.5 m/s)
Visibility: 0.06 miles (0.10 km)
Ceiling: at least 12,000 feet AGL
Clouds: sky clear below 12,000 feet AGL
Weather: BR  (mist)

METAR text: EKKA 232020Z AUTO 10002KT 4100NDV BR OVC170/// M05/M07 Q1008 R09R/190095 TEMPO 2500
Conditions at: EKKA (KARUP (DAN-AFB) , DK) observed 2020 UTC 23 January 2019
Temperature: -5.0°C (23°F)
Dewpoint: -7.0°C (19°F) [RH = 86%]
Pressure (altimeter): 29.76 inches Hg (1008.0 mb)
Winds: from the E (100 degrees) at 2 MPH (2 knots; 1.0 m/s)
Visibility: 0.06 miles (0.10 km)
Ceiling: 17000 feet AGL
Clouds: overcast cloud deck at 17000 feet AGL
Weather: BR  (mist)

METAR text: EKKA 232001Z AUTO 00000KT 4900NDV BR FEW140/// BKN180/// M05/M06 Q1007 R09R/190095 TEMPO 2500
Conditions at: EKKA (KARUP (DAN-AFB) , DK) observed 2001 UTC 23 January 2019
Temperature: -5.0°C (23°F)
Dewpoint: -6.0°C (21°F) [RH = 93%]
Pressure (altimeter): 29.73 inches Hg (1007.0 mb)
Winds: calm
Visibility: 0.06 miles (0.10 km)
Ceiling: 18000 feet AGL
Clouds: few clouds at 14000 feet AGL
broken clouds at 18000 feet AGL
Weather: BR  (mist)

METAR text: EKKA 232000Z AUTO 00000KT 4900NDV BR FEW140/// BKN180/// M05/M06 Q1007 R09R/190095 TEMPO 2500
Conditions at: EKKA (KARUP (DAN-AFB) , DK) observed 2000 UTC 23 January 2019
Temperature: -5.0°C (23°F)
Dewpoint: -6.0°C (21°F) [RH = 93%]
Pressure (altimeter): 29.73 inches Hg (1007.0 mb)
Winds: calm
Visibility: 0.06 miles (0.10 km)
Ceiling: 18000 feet AGL
Clouds: few clouds at 14000 feet AGL
broken clouds at 18000 feet AGL
Weather: BR  (mist)

METAR text: EKKA 231950Z AUTO 00000KT 5000NDV SCT140/// BKN180/// M06/M07 Q1007 R09R/190095 TEMPO 2500
Conditions at: EKKA (KARUP (DAN-AFB) , DK) observed 1950 UTC 23 January 2019
Temperature: -6.0°C (21°F)
Dewpoint: -7.0°C (19°F) [RH = 93%]
Pressure (altimeter): 29.73 inches Hg (1007.0 mb)
Winds: calm
Visibility: 0.06 miles (0.10 km)
Ceiling: 18000 feet AGL
Clouds: scattered clouds at 14000 feet AGL
broken clouds at 18000 feet AGL
Weather: no significant weather observed at this time

METAR text: EKKA 231920Z AUTO 00000KT 4500NDV BR FEW140/// SCT160/// M06/M07 Q1007 R09R/190095 TEMPO 2000
Conditions at: EKKA (KARUP (DAN-AFB) , DK) observed 1920 UTC 23 January 2019
Temperature: -6.0°C (21°F)
Dewpoint: -7.0°C (19°F) [RH = 93%]
Pressure (altimeter): 29.73 inches Hg (1007.0 mb)
Winds: calm
Visibility: 0.06 miles (0.10 km)
Ceiling: at least 12,000 feet AGL
Clouds: few clouds at 14000 feet AGL
scattered clouds at 16000 feet AGL
Weather: BR  (mist)

METAR text: EKKA 231900Z AUTO 00000KT 2700NDV BR BKN140/// M05/M07 Q1007 R09R/190095 TEMPO 2500
Conditions at: EKKA (KARUP (DAN-AFB) , DK) observed 1900 UTC 23 January 2019
Temperature: -5.0°C (23°F)
Dewpoint: -7.0°C (19°F) [RH = 86%]
Pressure (altimeter): 29.73 inches Hg (1007.0 mb)
Winds: calm
Visibility: 0.06 miles (0.10 km)
Ceiling: 14000 feet AGL
Clouds: broken clouds at 14000 feet AGL
Weather: BR  (mist)

METAR text: EKKA 231850Z AUTO 00000KT 4400NDV BR BKN140/// M05/M07 Q1007 R09R/190095
Conditions at: EKKA (KARUP (DAN-AFB) , DK) observed 1850 UTC 23 January 2019
Temperature: -5.0°C (23°F)
Dewpoint: -7.0°C (19°F) [RH = 86%]
Pressure (altimeter): 29.73 inches Hg (1007.0 mb)
Winds: calm
Visibility: 0.06 miles (0.10 km)
Ceiling: 14000 feet AGL
Clouds: broken clouds at 14000 feet AGL
Weather: BR  (mist)

METAR text: EKKA 231847Z AUTO 00000KT 4900NDV BR BKN140/// M05/M07 Q1007 R09R/190095
Conditions at: EKKA (KARUP (DAN-AFB) , DK) observed 1847 UTC 23 January 2019
Temperature: -5.0°C (23°F)
Dewpoint: -7.0°C (19°F) [RH = 86%]
Pressure (altimeter): 29.73 inches Hg (1007.0 mb)
Winds: calm
Visibility: 0.06 miles (0.10 km)
Ceiling: 14000 feet AGL
Clouds: broken clouds at 14000 feet AGL
Weather: BR  (mist)

METAR text: EKKA 231820Z AUTO 00000KT 6000NDV SCT014/// BKN140/// M06/M08 Q1007 R09R/190095
Conditions at: EKKA (KARUP (DAN-AFB) , DK) observed 1820 UTC 23 January 2019
Temperature: -6.0°C (21°F)
Dewpoint: -8.0°C (18°F) [RH = 86%]
Pressure (altimeter): 29.73 inches Hg (1007.0 mb)
Winds: calm
Visibility: 0.06 miles (0.10 km)
Ceiling: 14000 feet AGL
Clouds: scattered clouds at 1400 feet AGL
broken clouds at 14000 feet AGL
Weather: no significant weather observed at this time

METAR text: EKKA 231750Z 00000KT 7000 NSC M05/M07 Q1007 R09R/190095
Conditions at: EKKA (KARUP (DAN-AFB) , DK) observed 1750 UTC 23 January 2019
Temperature: -5.0°C (23°F)
Dewpoint: -7.0°C (19°F) [RH = 86%]
Pressure (altimeter): 29.73 inches Hg (1007.0 mb)
Winds: calm
Visibility: 4 miles ( 7 km)
Ceiling: at least 12,000 feet AGL
Clouds: sky clear below 12,000 feet AGL
Weather: no significant weather observed at this time

METAR text: EKKA 231735Z AUTO 00000KT 7000NDV BKN150/// M05/M07 Q1007 R09R/190095
Conditions at: EKKA (KARUP (DAN-AFB) , DK) observed 1735 UTC 23 January 2019
Temperature: -5.0°C (23°F)
Dewpoint: -7.0°C (19°F) [RH = 86%]
Pressure (altimeter): 29.73 inches Hg (1007.0 mb)
Winds: calm
Visibility: 0.06 miles (0.10 km)
Ceiling: 15000 feet AGL
Clouds: broken clouds at 15000 feet AGL
Weather: no significant weather observed at this time

METAR text: EKKA 231720Z AUTO 00000KT 9000NDV BKN140/// M03/M06 Q1006 R09R/190095
Conditions at: EKKA (KARUP (DAN-AFB) , DK) observed 1720 UTC 23 January 2019
Temperature: -3.0°C (27°F)
Dewpoint: -6.0°C (21°F) [RH = 80%]
Pressure (altimeter): 29.70 inches Hg (1006.0 mb)
Winds: calm
Visibility: 0.06 miles (0.10 km)
Ceiling: 14000 feet AGL
Clouds: broken clouds at 14000 feet AGL
Weather: no significant weather observed at this time

METAR text: EKKA 231650Z AUTO 14004KT 120V180 9999NDV FEW015/// FEW150/// M03/M05 Q1006 R09R/190095
Conditions at: EKKA (KARUP (DAN-AFB) , DK) observed 1650 UTC 23 January 2019
Temperature: -3.0°C (27°F)
Dewpoint: -5.0°C (23°F) [RH = 86%]
Pressure (altimeter): 29.70 inches Hg (1006.0 mb)
Winds: from the SE (140 degrees) at 5 MPH (4 knots; 2.1 m/s)
Visibility: 0.06 miles (0.10 km)
Ceiling: at least 12,000 feet AGL
Clouds: few clouds at 1500 feet AGL
few clouds at 15000 feet AGL
Weather: no significant weather observed at this time

METAR text: EKKA 231620Z AUTO 12002KT 9999NDV BKN015/// M02/M05 Q1006 R09R/190095
Conditions at: EKKA (KARUP (DAN-AFB) , DK) observed 1620 UTC 23 January 2019
Temperature: -2.0°C (28°F)
Dewpoint: -5.0°C (23°F) [RH = 80%]
Pressure (altimeter): 29.70 inches Hg (1006.0 mb)
Winds: from the ESE (120 degrees) at 2 MPH (2 knots; 1.0 m/s)
Visibility: 0.06 miles (0.10 km)
Ceiling: 1500 feet AGL
Clouds: broken clouds at 1500 feet AGL
Weather: no significant weather observed at this time

METAR text: EKKA 231550Z AUTO 00000KT 9999NDV FEW015/// BKN160/// M02/M05 Q1006 R09R/190095
Conditions at: EKKA (KARUP (DAN-AFB) , DK) observed 1550 UTC 23 January 2019
Temperature: -2.0°C (28°F)
Dewpoint: -5.0°C (23°F) [RH = 80%]
Pressure (altimeter): 29.70 inches Hg (1006.0 mb)
Winds: calm
Visibility: 0.06 miles (0.10 km)
Ceiling: 16000 feet AGL
Clouds: few clouds at 1500 feet AGL
broken clouds at 16000 feet AGL
Weather: no significant weather observed at this time

METAR text: EKKA 231520Z AUTO 14003KT 9999NDV FEW016/// M02/M05 Q1005 R09R/190095
Conditions at: EKKA (KARUP (DAN-AFB) , DK) observed 1520 UTC 23 January 2019
Temperature: -2.0°C (28°F)
Dewpoint: -5.0°C (23°F) [RH = 80%]
Pressure (altimeter): 29.68 inches Hg (1005.0 mb)
Winds: from the SE (140 degrees) at 3 MPH (3 knots; 1.5 m/s)
Visibility: 0.06 miles (0.10 km)
Ceiling: at least 12,000 feet AGL
Clouds: few clouds at 1600 feet AGL
Weather: no significant weather observed at this time

METAR text: EKKA 231450Z AUTO 14006KT 110V170 9999NDV SCT017/// M01/M05 Q1005 R09R/190095 TEMPO 6000 BKN012
Conditions at: EKKA (KARUP (DAN-AFB) , DK) observed 1450 UTC 23 January 2019
Temperature: -1.0°C (30°F)
Dewpoint: -5.0°C (23°F) [RH = 74%]
Pressure (altimeter): 29.68 inches Hg (1005.0 mb)
Winds: from the SE (140 degrees) at 7 MPH (6 knots; 3.1 m/s)
Visibility: 0.06 miles (0.10 km)
Ceiling: at least 12,000 feet AGL
Clouds: scattered clouds at 1700 feet AGL
Weather: no significant weather observed at this time

METAR text: EKKA 231420Z AUTO 15005KT 120V190 9999NDV BKN017/// M01/M05 Q1005 R09R/190095 TEMPO 6000 BKN012
Conditions at: EKKA (KARUP (DAN-AFB) , DK) observed 1420 UTC 23 January 2019
Temperature: -1.0°C (30°F)
Dewpoint: -5.0°C (23°F) [RH = 74%]
Pressure (altimeter): 29.68 inches Hg (1005.0 mb)
Winds: from the SSE (150 degrees) at 6 MPH (5 knots; 2.6 m/s)
Visibility: 0.06 miles (0.10 km)
Ceiling: 1700 feet AGL
Clouds: broken clouds at 1700 feet AGL
Weather: no significant weather observed at this time

METAR text: EKKA 231350Z AUTO 14006KT 100V180 9999NDV BKN017/// M01/M05 Q1005 R09R/190095 TEMPO 6000 BKN012
Conditions at: EKKA (KARUP (DAN-AFB) , DK) observed 1350 UTC 23 January 2019
Temperature: -1.0°C (30°F)
Dewpoint: -5.0°C (23°F) [RH = 74%]
Pressure (altimeter): 29.68 inches Hg (1005.0 mb)
Winds: from the SE (140 degrees) at 7 MPH (6 knots; 3.1 m/s)
Visibility: 0.06 miles (0.10 km)
Ceiling: 1700 feet AGL
Clouds: broken clouds at 1700 feet AGL
Weather: no significant weather observed at this time

METAR text: EKKA 231320Z AUTO 16007KT 130V200 9999NDV OVC017/// M01/M04 Q1004 R09R/190095 TEMPO 6000 BKN012
Conditions at: EKKA (KARUP (DAN-AFB) , DK) observed 1320 UTC 23 January 2019
Temperature: -1.0°C (30°F)
Dewpoint: -4.0°C (25°F) [RH = 80%]
Pressure (altimeter): 29.65 inches Hg (1004.0 mb)
Winds: from the SSE (160 degrees) at 8 MPH (7 knots; 3.6 m/s)
Visibility: 0.06 miles (0.10 km)
Ceiling: 1700 feet AGL
Clouds: overcast cloud deck at 1700 feet AGL
Weather: no significant weather observed at this time

METAR text: EKKA 231250Z AUTO 14007KT 090V170 9999NDV BKN017/// M01/M04 Q1004 R09R/190095 TEMPO 6000 BKN012
Conditions at: EKKA (KARUP (DAN-AFB) , DK) observed 1250 UTC 23 January 2019
Temperature: -1.0°C (30°F)
Dewpoint: -4.0°C (25°F) [RH = 80%]
Pressure (altimeter): 29.65 inches Hg (1004.0 mb)
Winds: from the SE (140 degrees) at 8 MPH (7 knots; 3.6 m/s)
Visibility: 0.06 miles (0.10 km)
Ceiling: 1700 feet AGL
Clouds: broken clouds at 1700 feet AGL
Weather: no significant weather observed at this time

METAR text: EKKA 231220Z AUTO 15007KT 110V190 9999NDV BKN017/// M01/M05 Q1004 R09R/190095 TEMPO 6000 BKN012
Conditions at: EKKA (KARUP (DAN-AFB) , DK) observed 1220 UTC 23 January 2019
Temperature: -1.0°C (30°F)
Dewpoint: -5.0°C (23°F) [RH = 74%]
Pressure (altimeter): 29.65 inches Hg (1004.0 mb)
Winds: from the SSE (150 degrees) at 8 MPH (7 knots; 3.6 m/s)
Visibility: 0.06 miles (0.10 km)
Ceiling: 1700 feet AGL
Clouds: broken clouds at 1700 feet AGL
Weather: no significant weather observed at this time

METAR text: EKKA 231150Z AUTO 14006KT 100V180 9999NDV BKN017/// M01/M05 Q1004 R09R/190095 TEMPO 6000 BKN012
Conditions at: EKKA (KARUP (DAN-AFB) , DK) observed 1150 UTC 23 January 2019
Temperature: -1.0°C (30°F)
Dewpoint: -5.0°C (23°F) [RH = 74%]
Pressure (altimeter): 29.65 inches Hg (1004.0 mb)
Winds: from the SE (140 degrees) at 7 MPH (6 knots; 3.1 m/s)
Visibility: 0.06 miles (0.10 km)
Ceiling: 1700 feet AGL
Clouds: broken clouds at 1700 feet AGL
Weather: no significant weather observed at this time

METAR text: EKKA 231120Z AUTO 14008KT 110V180 9999NDV BKN016/// M01/M05 Q1004 R09R/190095 TEMPO 6000 BKN012
Conditions at: EKKA (KARUP (DAN-AFB) , DK) observed 1120 UTC 23 January 2019
Temperature: -1.0°C (30°F)
Dewpoint: -5.0°C (23°F) [RH = 74%]
Pressure (altimeter): 29.65 inches Hg (1004.0 mb)
Winds: from the SE (140 degrees) at 9 MPH (8 knots; 4.1 m/s)
Visibility: 0.06 miles (0.10 km)
Ceiling: 1600 feet AGL
Clouds: broken clouds at 1600 feet AGL
Weather: no significant weather observed at this time

METAR text: EKKA 231050Z AUTO 14007KT 100V180 9999NDV BKN016/// M01/M04 Q1004 R09R/190095 TEMPO 6000 BKN012
Conditions at: EKKA (KARUP (DAN-AFB) , DK) observed 1050 UTC 23 January 2019
Temperature: -1.0°C (30°F)
Dewpoint: -4.0°C (25°F) [RH = 80%]
Pressure (altimeter): 29.65 inches Hg (1004.0 mb)
Winds: from the SE (140 degrees) at 8 MPH (7 knots; 3.6 m/s)
Visibility: 0.06 miles (0.10 km)
Ceiling: 1600 feet AGL
Clouds: broken clouds at 1600 feet AGL
Weather: no significant weather observed at this time

METAR text: EKKA 231020Z AUTO 14007KT 110V180 9999NDV OVC016/// M01/M04 Q1004 R09R/190095 TEMPO 6000 BKN012
Conditions at: EKKA (KARUP (DAN-AFB) , DK) observed 1020 UTC 23 January 2019
Temperature: -1.0°C (30°F)
Dewpoint: -4.0°C (25°F) [RH = 80%]
Pressure (altimeter): 29.65 inches Hg (1004.0 mb)
Winds: from the SE (140 degrees) at 8 MPH (7 knots; 3.6 m/s)
Visibility: 0.06 miles (0.10 km)
Ceiling: 1600 feet AGL
Clouds: overcast cloud deck at 1600 feet AGL
Weather: no significant weather observed at this time

METAR text: EKKA 230950Z AUTO 14008KT 100V180 9999NDV OVC016/// M01/M04 Q1004 R09R/190095 TEMPO 6000 BKN012
Conditions at: EKKA (KARUP (DAN-AFB) , DK) observed 0950 UTC 23 January 2019
Temperature: -1.0°C (30°F)
Dewpoint: -4.0°C (25°F) [RH = 80%]
Pressure (altimeter): 29.65 inches Hg (1004.0 mb)
Winds: from the SE (140 degrees) at 9 MPH (8 knots; 4.1 m/s)
Visibility: 0.06 miles (0.10 km)
Ceiling: 1600 feet AGL
Clouds: overcast cloud deck at 1600 feet AGL
Weather: no significant weather observed at this time

METAR text: EKKA 230920Z AUTO 13006KT 100V160 9999NDV OVC015/// M01/M04 Q1003 R09R/190095 TEMPO 6000 BKN012
Conditions at: EKKA (KARUP (DAN-AFB) , DK) observed 0920 UTC 23 January 2019
Temperature: -1.0°C (30°F)
Dewpoint: -4.0°C (25°F) [RH = 80%]
Pressure (altimeter): 29.62 inches Hg (1003.0 mb)
Winds: from the SE (130 degrees) at 7 MPH (6 knots; 3.1 m/s)
Visibility: 0.06 miles (0.10 km)
Ceiling: 1500 feet AGL
Clouds: overcast cloud deck at 1500 feet AGL
Weather: no significant weather observed at this time

METAR text: EKKA 230850Z AUTO 13006KT 100V160 9999NDV BKN016/// M02/M04 Q1003 R09R/190095 TEMPO 6000 BKN012
Conditions at: EKKA (KARUP (DAN-AFB) , DK) observed 0850 UTC 23 January 2019
Temperature: -2.0°C (28°F)
Dewpoint: -4.0°C (25°F) [RH = 86%]
Pressure (altimeter): 29.62 inches Hg (1003.0 mb)
Winds: from the SE (130 degrees) at 7 MPH (6 knots; 3.1 m/s)
Visibility: 0.06 miles (0.10 km)
Ceiling: 1600 feet AGL
Clouds: broken clouds at 1600 feet AGL
Weather: no significant weather observed at this time

METAR text: EKKA 230820Z AUTO 14006KT 100V170 9000NDV BKN017/// M02/M04 Q1003 R09R/190095 TEMPO 6000 BKN012
Conditions at: EKKA (KARUP (DAN-AFB) , DK) observed 0820 UTC 23 January 2019
Temperature: -2.0°C (28°F)
Dewpoint: -4.0°C (25°F) [RH = 86%]
Pressure (altimeter): 29.62 inches Hg (1003.0 mb)
Winds: from the SE (140 degrees) at 7 MPH (6 knots; 3.1 m/s)
Visibility: 0.06 miles (0.10 km)
Ceiling: 1700 feet AGL
Clouds: broken clouds at 1700 feet AGL
Weather: no significant weather observed at this time

METAR text: EKKA 230750Z AUTO 13005KT 100V160 9000NDV BKN017/// M02/M04 Q1003 R09R/190095 TEMPO 6000 BKN012
Conditions at: EKKA (KARUP (DAN-AFB) , DK) observed 0750 UTC 23 January 2019
Temperature: -2.0°C (28°F)
Dewpoint: -4.0°C (25°F) [RH = 86%]
Pressure (altimeter): 29.62 inches Hg (1003.0 mb)
Winds: from the SE (130 degrees) at 6 MPH (5 knots; 2.6 m/s)
Visibility: 0.06 miles (0.10 km)
Ceiling: 1700 feet AGL
Clouds: broken clouds at 1700 feet AGL
Weather: no significant weather observed at this time

METAR text: EKKA 230720Z AUTO 13006KT 9000NDV BKN015/// M02/M04 Q1002 R09R/190095 TEMPO 7000 BKN012
Conditions at: EKKA (KARUP (DAN-AFB) , DK) observed 0720 UTC 23 January 2019
Temperature: -2.0°C (28°F)
Dewpoint: -4.0°C (25°F) [RH = 86%]
Pressure (altimeter): 29.59 inches Hg (1002.0 mb)
Winds: from the SE (130 degrees) at 7 MPH (6 knots; 3.1 m/s)
Visibility: 0.06 miles (0.10 km)
Ceiling: 1500 feet AGL
Clouds: broken clouds at 1500 feet AGL
Weather: no significant weather observed at this time

METAR text: EKKA 230650Z AUTO 13006KT 110V170 9000NDV BKN014/// M02/M04 Q1002 R09R/190095 TEMPO 7000 BKN012
Conditions at: EKKA (KARUP (DAN-AFB) , DK) observed 0650 UTC 23 January 2019
Temperature: -2.0°C (28°F)
Dewpoint: -4.0°C (25°F) [RH = 86%]
Pressure (altimeter): 29.59 inches Hg (1002.0 mb)
Winds: from the SE (130 degrees) at 7 MPH (6 knots; 3.1 m/s)
Visibility: 0.06 miles (0.10 km)
Ceiling: 1400 feet AGL
Clouds: broken clouds at 1400 feet AGL
Weather: no significant weather observed at this time

METAR text: EKKA 230620Z AUTO 14006KT 100V180 9999NDV OVC014/// M02/M04 Q1002 R09R/190095 TEMPO 7000 BKN012
Conditions at: EKKA (KARUP (DAN-AFB) , DK) observed 0620 UTC 23 January 2019
Temperature: -2.0°C (28°F)
Dewpoint: -4.0°C (25°F) [RH = 86%]
Pressure (altimeter): 29.59 inches Hg (1002.0 mb)
Winds: from the SE (140 degrees) at 7 MPH (6 knots; 3.1 m/s)
Visibility: 0.06 miles (0.10 km)
Ceiling: 1400 feet AGL
Clouds: overcast cloud deck at 1400 feet AGL
Weather: no significant weather observed at this time

METAR text: EKKA 230550Z AUTO 14007KT 110V170 9999NDV OVC014/// M02/M04 Q1002 R09R/190095 TEMPO 7000 BKN012
Conditions at: EKKA (KARUP (DAN-AFB) , DK) observed 0550 UTC 23 January 2019
Temperature: -2.0°C (28°F)
Dewpoint: -4.0°C (25°F) [RH = 86%]
Pressure (altimeter): 29.59 inches Hg (1002.0 mb)
Winds: from the SE (140 degrees) at 8 MPH (7 knots; 3.6 m/s)
Visibility: 0.06 miles (0.10 km)
Ceiling: 1400 feet AGL
Clouds: overcast cloud deck at 1400 feet AGL
Weather: no significant weather observed at this time

METAR text: EKKA 230524Z AUTO 14007KT 110V170 9999NDV BKN014/// M02/M04 Q1001 R09R/190095
Conditions at: EKKA (KARUP (DAN-AFB) , DK) observed 0524 UTC 23 January 2019
Temperature: -2.0°C (28°F)
Dewpoint: -4.0°C (25°F) [RH = 86%]
Pressure (altimeter): 29.56 inches Hg (1001.0 mb)
Winds: from the SE (140 degrees) at 8 MPH (7 knots; 3.6 m/s)
Visibility: 0.06 miles (0.10 km)
Ceiling: 1400 feet AGL
Clouds: broken clouds at 1400 feet AGL
Weather: no significant weather observed at this time

METAR text: EKKA 230520Z AUTO 14006KT 090V180 9999NDV BKN015/// M02/M04 Q1001 R09R/190095
Conditions at: EKKA (KARUP (DAN-AFB) , DK) observed 0520 UTC 23 January 2019
Temperature: -2.0°C (28°F)
Dewpoint: -4.0°C (25°F) [RH = 86%]
Pressure (altimeter): 29.56 inches Hg (1001.0 mb)
Winds: from the SE (140 degrees) at 7 MPH (6 knots; 3.1 m/s)
Visibility: 0.06 miles (0.10 km)
Ceiling: 1500 feet AGL
Clouds: broken clouds at 1500 feet AGL
Weather: no significant weather observed at this time

METAR text: EKKA 230450Z AUTO 14006KT 100V170 9999NDV OVC016/// M02/M04 Q1001 R09R/190095
Conditions at: EKKA (KARUP (DAN-AFB) , DK) observed 0450 UTC 23 January 2019
Temperature: -2.0°C (28°F)
Dewpoint: -4.0°C (25°F) [RH = 86%]
Pressure (altimeter): 29.56 inches Hg (1001.0 mb)
Winds: from the SE (140 degrees) at 7 MPH (6 knots; 3.1 m/s)
Visibility: 0.06 miles (0.10 km)
Ceiling: 1600 feet AGL
Clouds: overcast cloud deck at 1600 feet AGL
Weather: no significant weather observed at this time

METAR text: EKKA 230420Z AUTO 14006KT 110V170 9999NDV BKN016/// BKN190/// BKN240/// M02/M04 Q1001 R09R/190095
Conditions at: EKKA (KARUP (DAN-AFB) , DK) observed 0420 UTC 23 January 2019
Temperature: -2.0°C (28°F)
Dewpoint: -4.0°C (25°F) [RH = 86%]
Pressure (altimeter): 29.56 inches Hg (1001.0 mb)
Winds: from the SE (140 degrees) at 7 MPH (6 knots; 3.1 m/s)
Visibility: 0.06 miles (0.10 km)
Ceiling: 1600 feet AGL
Clouds: broken clouds at 1600 feet AGL
broken clouds at 19000 feet AGL
broken clouds at 24000 feet AGL
Weather: no significant weather observed at this time

METAR text: EKKA 230350Z AUTO 13005KT 090V160 9999NDV SCT017/// BKN180/// BKN220/// M02/M04 Q1001 R09R/190095
Conditions at: EKKA (KARUP (DAN-AFB) , DK) observed 0350 UTC 23 January 2019
Temperature: -2.0°C (28°F)
Dewpoint: -4.0°C (25°F) [RH = 86%]
Pressure (altimeter): 29.56 inches Hg (1001.0 mb)
Winds: from the SE (130 degrees) at 6 MPH (5 knots; 2.6 m/s)
Visibility: 0.06 miles (0.10 km)
Ceiling: 18000 feet AGL
Clouds: scattered clouds at 1700 feet AGL
broken clouds at 18000 feet AGL
broken clouds at 22000 feet AGL
Weather: no significant weather observed at this time

METAR text: EKKA 230320Z AUTO 13005KT 090V170 9999NDV SCT180/// OVC210/// M02/M04 Q1001 R09R/190095
Conditions at: EKKA (KARUP (DAN-AFB) , DK) observed 0320 UTC 23 January 2019
Temperature: -2.0°C (28°F)
Dewpoint: -4.0°C (25°F) [RH = 86%]
Pressure (altimeter): 29.56 inches Hg (1001.0 mb)
Winds: from the SE (130 degrees) at 6 MPH (5 knots; 2.6 m/s)
Visibility: 0.06 miles (0.10 km)
Ceiling: 21000 feet AGL
Clouds: scattered clouds at 18000 feet AGL
overcast cloud deck at 21000 feet AGL
Weather: no significant weather observed at this time

METAR text: EKKA 230250Z AUTO 12006KT 9999NDV OVC220/// M02/M04 Q1001 R09R/190095
Conditions at: EKKA (KARUP (DAN-AFB) , DK) observed 0250 UTC 23 January 2019
Temperature: -2.0°C (28°F)
Dewpoint: -4.0°C (25°F) [RH = 86%]
Pressure (altimeter): 29.56 inches Hg (1001.0 mb)
Winds: from the ESE (120 degrees) at 7 MPH (6 knots; 3.1 m/s)
Visibility: 0.06 miles (0.10 km)
Ceiling: 22000 feet AGL
Clouds: overcast cloud deck at 22000 feet AGL
Weather: no significant weather observed at this time

METAR text: EKKA 230220Z AUTO 12006KT 9999NDV BKN220/// M02/M04 Q1001 R09R/190095
Conditions at: EKKA (KARUP (DAN-AFB) , DK) observed 0220 UTC 23 January 2019
Temperature: -2.0°C (28°F)
Dewpoint: -4.0°C (25°F) [RH = 86%]
Pressure (altimeter): 29.56 inches Hg (1001.0 mb)
Winds: from the ESE (120 degrees) at 7 MPH (6 knots; 3.1 m/s)
Visibility: 0.06 miles (0.10 km)
Ceiling: 22000 feet AGL
Clouds: broken clouds at 22000 feet AGL
Weather: no significant weather observed at this time

METAR text: EKKA 230150Z AUTO 12004KT 090V160 9999NDV BKN200/// M03/M04 Q1001 R09R/190095
Conditions at: EKKA (KARUP (DAN-AFB) , DK) observed 0150 UTC 23 January 2019
Temperature: -3.0°C (27°F)
Dewpoint: -4.0°C (25°F) [RH = 93%]
Pressure (altimeter): 29.56 inches Hg (1001.0 mb)
Winds: from the ESE (120 degrees) at 5 MPH (4 knots; 2.1 m/s)
Visibility: 0.06 miles (0.10 km)
Ceiling: 20000 feet AGL
Clouds: broken clouds at 20000 feet AGL
Weather: no significant weather observed at this time

METAR text: EKKA 230120Z AUTO 13004KT 100V160 9999NDV FEW240/// M02/M04 Q1001 R09R/190095
Conditions at: EKKA (KARUP (DAN-AFB) , DK) observed 0120 UTC 23 January 2019
Temperature: -2.0°C (28°F)
Dewpoint: -4.0°C (25°F) [RH = 86%]
Pressure (altimeter): 29.56 inches Hg (1001.0 mb)
Winds: from the SE (130 degrees) at 5 MPH (4 knots; 2.1 m/s)
Visibility: 0.06 miles (0.10 km)
Ceiling: at least 12,000 feet AGL
Clouds: few clouds at 24000 feet AGL
Weather: no significant weather observed at this time

METAR text: EKKA 230050Z AUTO 13004KT 9999NDV FEW180/// M02/M04 Q1001 R09R/190095
Conditions at: EKKA (KARUP (DAN-AFB) , DK) observed 0050 UTC 23 January 2019
Temperature: -2.0°C (28°F)
Dewpoint: -4.0°C (25°F) [RH = 86%]
Pressure (altimeter): 29.56 inches Hg (1001.0 mb)
Winds: from the SE (130 degrees) at 5 MPH (4 knots; 2.1 m/s)
Visibility: 0.06 miles (0.10 km)
Ceiling: at least 12,000 feet AGL
Clouds: few clouds at 18000 feet AGL
Weather: no significant weather observed at this time

METAR text: EKKA 230020Z AUTO 13005KT 090V170 9999NDV FEW170/// SCT190/// M02/M04 Q1001 R09R/190095
Conditions at: EKKA (KARUP (DAN-AFB) , DK) observed 0020 UTC 23 January 2019
Temperature: -2.0°C (28°F)
Dewpoint: -4.0°C (25°F) [RH = 86%]
Pressure (altimeter): 29.56 inches Hg (1001.0 mb)
Winds: from the SE (130 degrees) at 6 MPH (5 knots; 2.6 m/s)
Visibility: 0.06 miles (0.10 km)
Ceiling: at least 12,000 feet AGL
Clouds: few clouds at 17000 feet AGL
scattered clouds at 19000 feet AGL
Weather: no significant weather observed at this time

METAR text: EKKA 222350Z AUTO 13004KT 080V170 9999NDV NCD M02/M04 Q1001 R09R/190095
Conditions at: EKKA (KARUP (DAN-AFB) , DK) observed 2350 UTC 22 January 2019
Temperature: -2.0°C (28°F)
Dewpoint: -4.0°C (25°F) [RH = 86%]
Pressure (altimeter): 29.56 inches Hg (1001.0 mb)
Winds: from the SE (130 degrees) at 5 MPH (4 knots; 2.1 m/s)
Visibility: 0.06 miles (0.10 km)
Ceiling: at least 12,000 feet AGL
Clouds: sky clear below 12,000 feet AGL
Weather: no significant weather observed at this time

METAR text: EKKA 222320Z AUTO 13006KT 090V180 9999NDV NCD M02/M04 Q1002 R09R/190095
Conditions at: EKKA (KARUP (DAN-AFB) , DK) observed 2320 UTC 22 January 2019
Temperature: -2.0°C (28°F)
Dewpoint: -4.0°C (25°F) [RH = 86%]
Pressure (altimeter): 29.59 inches Hg (1002.0 mb)
Winds: from the SE (130 degrees) at 7 MPH (6 knots; 3.1 m/s)
Visibility: 0.06 miles (0.10 km)
Ceiling: at least 12,000 feet AGL
Clouds: sky clear below 12,000 feet AGL
Weather: no significant weather observed at this time

METAR text: EKKA 222250Z AUTO 13005KT 100V160 9999NDV NCD M02/M03 Q1002 R09R/190095
Conditions at: EKKA (KARUP (DAN-AFB) , DK) observed 2250 UTC 22 January 2019
Temperature: -2.0°C (28°F)
Dewpoint: -3.0°C (27°F) [RH = 93%]
Pressure (altimeter): 29.59 inches Hg (1002.0 mb)
Winds: from the SE (130 degrees) at 6 MPH (5 knots; 2.6 m/s)
Visibility: 0.06 miles (0.10 km)
Ceiling: at least 12,000 feet AGL
Clouds: sky clear below 12,000 feet AGL
Weather: no significant weather observed at this time

METAR text: EKKA 222220Z AUTO 13006KT 090V170 9999NDV NCD M01/M03 Q1002 R09R/190095
Conditions at: EKKA (KARUP (DAN-AFB) , DK) observed 2220 UTC 22 January 2019
Temperature: -1.0°C (30°F)
Dewpoint: -3.0°C (27°F) [RH = 86%]
Pressure (altimeter): 29.59 inches Hg (1002.0 mb)
Winds: from the SE (130 degrees) at 7 MPH (6 knots; 3.1 m/s)
Visibility: 0.06 miles (0.10 km)
Ceiling: at least 12,000 feet AGL
Clouds: sky clear below 12,000 feet AGL
Weather: no significant weather observed at this time

METAR text: EKKA 222150Z AUTO 14007KT 100V170 9999NDV SCT180/// M01/M03 Q1002 R09R/190095
Conditions at: EKKA (KARUP (DAN-AFB) , DK) observed 2150 UTC 22 January 2019
Temperature: -1.0°C (30°F)
Dewpoint: -3.0°C (27°F) [RH = 86%]
Pressure (altimeter): 29.59 inches Hg (1002.0 mb)
Winds: from the SE (140 degrees) at 8 MPH (7 knots; 3.6 m/s)
Visibility: 0.06 miles (0.10 km)
Ceiling: at least 12,000 feet AGL
Clouds: scattered clouds at 18000 feet AGL
Weather: no significant weather observed at this time

METAR text: EKKA 222120Z AUTO 14007KT 100V170 9999NDV BKN013/// BKN190/// M01/M03 Q1002 R09R/190095
Conditions at: EKKA (KARUP (DAN-AFB) , DK) observed 2120 UTC 22 January 2019
Temperature: -1.0°C (30°F)
Dewpoint: -3.0°C (27°F) [RH = 86%]
Pressure (altimeter): 29.59 inches Hg (1002.0 mb)
Winds: from the SE (140 degrees) at 8 MPH (7 knots; 3.6 m/s)
Visibility: 0.06 miles (0.10 km)
Ceiling: 1300 feet AGL
Clouds: broken clouds at 1300 feet AGL
broken clouds at 19000 feet AGL
Weather: no significant weather observed at this time

METAR text: EKKA 222050Z AUTO 14007KT 110V170 9999NDV BKN014/// M01/M03 Q1002 R09R/190095
Conditions at: EKKA (KARUP (DAN-AFB) , DK) observed 2050 UTC 22 January 2019
Temperature: -1.0°C (30°F)
Dewpoint: -3.0°C (27°F) [RH = 86%]
Pressure (altimeter): 29.59 inches Hg (1002.0 mb)
Winds: from the SE (140 degrees) at 8 MPH (7 knots; 3.6 m/s)
Visibility: 0.06 miles (0.10 km)
Ceiling: 1400 feet AGL
Clouds: broken clouds at 1400 feet AGL
Weather: no significant weather observed at this time

METAR text: EKKA 222044Z AUTO 14008KT 110V170 9999NDV BKN014/// M01/M03 Q1002 R09R/190095
Conditions at: EKKA (KARUP (DAN-AFB) , DK) observed 2044 UTC 22 January 2019
Temperature: -1.0°C (30°F)
Dewpoint: -3.0°C (27°F) [RH = 86%]
Pressure (altimeter): 29.59 inches Hg (1002.0 mb)
Winds: from the SE (140 degrees) at 9 MPH (8 knots; 4.1 m/s)
Visibility: 0.06 miles (0.10 km)
Ceiling: 1400 feet AGL
Clouds: broken clouds at 1400 feet AGL
Weather: no significant weather observed at this time

METAR text: EKKA 222020Z AUTO 14009KT 110V180 9999NDV FEW140/// M01/M03 Q1002 R09R/190095
Conditions at: EKKA (KARUP (DAN-AFB) , DK) observed 2020 UTC 22 January 2019
Temperature: -1.0°C (30°F)
Dewpoint: -3.0°C (27°F) [RH = 86%]
Pressure (altimeter): 29.59 inches Hg (1002.0 mb)
Winds: from the SE (140 degrees) at 10 MPH (9 knots; 4.6 m/s)
Visibility: 0.06 miles (0.10 km)
Ceiling: at least 12,000 feet AGL
Clouds: few clouds at 14000 feet AGL
Weather: no significant weather observed at this time

METAR text: EKKA 221950Z AUTO 14008KT 100V170 9999NDV BKN140/// M01/M03 Q1002 R09R/190095
Conditions at: EKKA (KARUP (DAN-AFB) , DK) observed 1950 UTC 22 January 2019
Temperature: -1.0°C (30°F)
Dewpoint: -3.0°C (27°F) [RH = 86%]
Pressure (altimeter): 29.59 inches Hg (1002.0 mb)
Winds: from the SE (140 degrees) at 9 MPH (8 knots; 4.1 m/s)
Visibility: 0.06 miles (0.10 km)
Ceiling: 14000 feet AGL
Clouds: broken clouds at 14000 feet AGL
Weather: no significant weather observed at this time

METAR text: EKKA 221920Z AUTO 13009KT 090V160 9999NDV BKN140/// M00/M03 Q1002 R09R/190095
Conditions at: EKKA (KARUP (DAN-AFB) , DK) observed 1920 UTC 22 January 2019
Temperature: 0.0°C (32°F)
Dewpoint: -3.0°C (27°F) [RH = 80%]
Pressure (altimeter): 29.59 inches Hg (1002.0 mb)
Winds: from the SE (130 degrees) at 10 MPH (9 knots; 4.6 m/s)
Visibility: 0.06 miles (0.10 km)
Ceiling: 14000 feet AGL
Clouds: broken clouds at 14000 feet AGL
Weather: no significant weather observed at this time

METAR text: EKKA 221903Z 13009KT 100V170 9999 SCT013 BKN150 M00/M03 Q1002 R09R/190095
Conditions at: EKKA (KARUP (DAN-AFB) , DK) observed 1903 UTC 22 January 2019
Temperature: 0.0°C (32°F)
Dewpoint: -3.0°C (27°F) [RH = 80%]
Pressure (altimeter): 29.59 inches Hg (1002.0 mb)
Winds: from the SE (130 degrees) at 10 MPH (9 knots; 4.6 m/s)
Visibility: 6 or more miles (10+ km)
Ceiling: 15000 feet AGL
Clouds: scattered clouds at 1300 feet AGL
broken clouds at 15000 feet AGL
Weather: no significant weather observed at this time

METAR text: EKKA 221850Z AUTO 13010KT 100V160 9999NDV BKN013/// BKN140/// M00/M02 Q1002 R09R/190095
Conditions at: EKKA (KARUP (DAN-AFB) , DK) observed 1850 UTC 22 January 2019
Temperature: 0.0°C (32°F)
Dewpoint: -2.0°C (28°F) [RH = 86%]
Pressure (altimeter): 29.59 inches Hg (1002.0 mb)
Winds: from the SE (130 degrees) at 12 MPH (10 knots; 5.1 m/s)
Visibility: 0.06 miles (0.10 km)
Ceiling: 1300 feet AGL
Clouds: broken clouds at 1300 feet AGL
broken clouds at 14000 feet AGL
Weather: no significant weather observed at this time

METAR text: EKKA 221824Z 13010KT 090V160 9000 BKN013 M00/M02 Q1002 R09R/190095
Conditions at: EKKA (KARUP (DAN-AFB) , DK) observed 1824 UTC 22 January 2019
Temperature: 0.0°C (32°F)
Dewpoint: -2.0°C (28°F) [RH = 86%]
Pressure (altimeter): 29.59 inches Hg (1002.0 mb)
Winds: from the SE (130 degrees) at 12 MPH (10 knots; 5.1 m/s)
Visibility: 6 miles ( 9 km)
Ceiling: 1300 feet AGL
Clouds: broken clouds at 1300 feet AGL
Weather: no significant weather observed at this time

METAR text: EKKA 221820Z 13010KT 100V160 9000 SCT013 BKN150 M00/M02 Q1002 R09R/190095 TEMPO 6000 BKN012
Conditions at: EKKA (KARUP (DAN-AFB) , DK) observed 1820 UTC 22 January 2019
Temperature: 0.0°C (32°F)
Dewpoint: -2.0°C (28°F) [RH = 86%]
Pressure (altimeter): 29.59 inches Hg (1002.0 mb)
Winds: from the SE (130 degrees) at 12 MPH (10 knots; 5.1 m/s)
Visibility: 6 miles ( 9 km)
Ceiling: 15000 feet AGL
Clouds: scattered clouds at 1300 feet AGL
broken clouds at 15000 feet AGL
Weather: no significant weather observed at this time

METAR text: EKKA 221750Z 13009KT 100V170 8000 NSC M00/M02 Q1002 R09R/190095 TEMPO 6000
Conditions at: EKKA (KARUP (DAN-AFB) , DK) observed 1750 UTC 22 January 2019
Temperature: 0.0°C (32°F)
Dewpoint: -2.0°C (28°F) [RH = 86%]
Pressure (altimeter): 29.59 inches Hg (1002.0 mb)
Winds: from the SE (130 degrees) at 10 MPH (9 knots; 4.6 m/s)
Visibility: 5 miles ( 8 km)
Ceiling: at least 12,000 feet AGL
Clouds: sky clear below 12,000 feet AGL
Weather: no significant weather observed at this time

METAR text: EKKA 221720Z 13009KT 100V160 8000 NSC M00/M02 Q1003 R09R/190095 TEMPO 6000
Conditions at: EKKA (KARUP (DAN-AFB) , DK) observed 1720 UTC 22 January 2019
Temperature: 0.0°C (32°F)
Dewpoint: -2.0°C (28°F) [RH = 86%]
Pressure (altimeter): 29.62 inches Hg (1003.0 mb)
Winds: from the SE (130 degrees) at 10 MPH (9 knots; 4.6 m/s)
Visibility: 5 miles ( 8 km)
Ceiling: at least 12,000 feet AGL
Clouds: sky clear below 12,000 feet AGL
Weather: no significant weather observed at this time

METAR text: EKKA 221650Z 13008KT 100V170 8000 NSC 00/M02 Q1003 R09R/190095 TEMPO 6000
Conditions at: EKKA (KARUP (DAN-AFB) , DK) observed 1650 UTC 22 January 2019
Temperature: 0.0°C (32°F)
Dewpoint: -2.0°C (28°F) [RH = 86%]
Pressure (altimeter): 29.62 inches Hg (1003.0 mb)
Winds: from the SE (130 degrees) at 9 MPH (8 knots; 4.1 m/s)
Visibility: 5 miles ( 8 km)
Ceiling: at least 12,000 feet AGL
Clouds: sky clear below 12,000 feet AGL
Weather: no significant weather observed at this time

METAR text: EKKA 221620Z 13007KT 100V170 7000 NSC 00/M02 Q1003 R09R/190095 NOSIG
Conditions at: EKKA (KARUP (DAN-AFB) , DK) observed 1620 UTC 22 January 2019
Temperature: 0.0°C (32°F)
Dewpoint: -2.0°C (28°F) [RH = 86%]
Pressure (altimeter): 29.62 inches Hg (1003.0 mb)
Winds: from the SE (130 degrees) at 8 MPH (7 knots; 3.6 m/s)
Visibility: 4 miles ( 7 km)
Ceiling: at least 12,000 feet AGL
Clouds: sky clear below 12,000 feet AGL
Weather: no significant weather observed at this time

Forecast for: EKKA (KARUP (DAN-AFB) , DK)
Text: TAF EKKA 240217Z 2403/2424 15005KT 6000 SCT015 BKN170
Forecast period: 0300 to 0900 UTC 24 January 2019
Forecast type: FROM: standard forecast or significant change
Winds: from the SSE (150 degrees) at 6 MPH (5 knots; 2.6 m/s)
Visibility: 4 miles (6 km)
Ceiling: 17000 feet AGL
Clouds: scattered clouds at 1500 feet AGL
broken clouds at 17000 feet AGL
Weather: no significant weather forecast for this period
Text: TEMPO 2403/2406 2500 BR BKN008
Forecast period: 0300 to 0600 UTC 24 January 2019
Forecast type: TEMPORARY: The following changes expected for less than half the time period
Visibility: 1.55 miles (2.49 km)
Ceiling: 800 feet AGL
Clouds: broken clouds at 800 feet AGL
Weather: BR  (mist)
Text: TEMPO 2406/2409 BKN012
Forecast period: 0600 to 0900 UTC 24 January 2019
Forecast type: TEMPORARY: The following changes expected for less than half the time period
Visibility: missing
Ceiling: 1200 feet AGL
Clouds: broken clouds at 1200 feet AGL
Weather: no significant weather forecast for this period
Text: BECMG 2409/2412 8000
Forecast period: 0900 UTC 24 January 2019 to 0000 UTC 25 January 2019
Forecast type: BECOMING: Conditions expected to become as follows by 1200 UTC 24 January 2019
Winds: from the SSE (150 degrees) at 6 MPH (5 knots; 2.6 m/s)
Visibility: 5 miles (8 km)
Ceiling: 17000 feet AGL
Clouds: scattered clouds at 1500 feet AGL
broken clouds at 17000 feet AGL
Weather: no significant weather forecast for this period
Text: TEMPO 2418/2424 5000 BR
Forecast period: 1800 UTC 24 January 2019 to 0000 UTC 25 January 2019
Forecast type: TEMPORARY: The following changes expected for less than half the time period
Visibility: 3 miles (5 km)
Ceiling: unknown
Clouds: missing
Weather: BR  (mist)